createdAt,value
2022-07-29T00:01:58.823Z,11.32
2022-07-29T00:07:01.450Z,11.18
2022-07-29T00:12:04.576Z,11.12
2022-07-29T00:17:07.172Z,11.08
2022-07-29T00:22:09.961Z,11.04
2022-07-29T00:27:12.712Z,10.99
2022-07-29T00:32:15.509Z,10.92
2022-07-29T00:37:18.231Z,10.85
2022-07-29T00:42:21.041Z,10.74
2022-07-29T00:47:23.758Z,10.67
2022-07-29T00:52:26.644Z,10.58
2022-07-29T00:57:29.460Z,10.47
2022-07-29T01:02:32.387Z,10.35
2022-07-29T01:07:37.898Z,10.30
2022-07-29T01:12:41.989Z,10.34
2022-07-29T01:18:08.081Z,10.37
2022-07-29T01:23:29.192Z,10.39
2022-07-29T01:28:58.449Z,10.42
2022-07-29T01:34:06.536Z,10.41
2022-07-29T01:39:19.849Z,10.31
2022-07-29T01:44:55.323Z,10.19
2022-07-29T01:50:01.074Z,10.14
2022-07-29T01:55:15.199Z,10.12
2022-07-29T02:00:18.649Z,10.09
2022-07-29T02:05:24.383Z,10.01
2022-07-29T02:10:30.946Z,9.95
2022-07-29T02:15:35.396Z,9.94
2022-07-29T02:20:40.227Z,9.95
2022-07-29T02:25:44.072Z,9.97
2022-07-29T02:30:51.160Z,10.02
2022-07-29T02:35:55.997Z,10.08
2022-07-29T02:41:01.148Z,10.07
2022-07-29T02:46:12.728Z,9.98
2022-07-29T02:51:44.520Z,9.90
2022-07-29T02:56:50.591Z,9.78
2022-07-29T03:01:55.376Z,9.68
2022-07-29T03:07:01.064Z,9.66
2022-07-29T03:12:05.267Z,9.72
2022-07-29T03:17:08.501Z,9.85
2022-07-29T03:22:11.477Z,9.96
2022-07-29T03:27:14.299Z,10.00
2022-07-29T03:32:17.201Z,10.04
2022-07-29T03:37:27.123Z,10.10
2022-07-29T03:42:34.432Z,10.15
2022-07-29T03:47:50.584Z,10.17
2022-07-29T03:52:54.604Z,10.19
2022-07-29T03:57:58.239Z,10.27
2022-07-29T04:03:01.683Z,10.37
2022-07-29T04:08:04.710Z,10.45
2022-07-29T04:13:07.448Z,10.55
2022-07-29T04:18:10.226Z,10.67
2022-07-29T04:23:12.981Z,10.80
2022-07-29T04:28:15.748Z,10.92
2022-07-29T04:33:19.862Z,11.01
2022-07-29T04:38:23.267Z,11.16
2022-07-29T04:43:25.987Z,11.35
2022-07-29T04:48:30.172Z,11.51
2022-07-29T04:53:32.785Z,11.70
2022-07-29T04:58:36.322Z,11.98
2022-07-29T05:03:39.057Z,12.30
2022-07-29T05:08:42.143Z,12.58
2022-07-29T05:13:45.356Z,12.80
2022-07-29T05:18:48.983Z,13.12
2022-07-29T05:23:51.715Z,13.51
2022-07-29T05:28:55.592Z,13.88
2022-07-29T05:33:58.344Z,14.24
2022-07-29T05:39:01.057Z,14.66
2022-07-29T05:44:03.780Z,15.10
2022-07-29T05:49:07.655Z,15.54
2022-07-29T05:54:10.455Z,15.95
2022-07-29T05:59:15.571Z,16.33
2022-07-29T06:04:21.430Z,16.55
2022-07-29T06:09:24.850Z,16.80
2022-07-29T06:14:27.872Z,17.15
2022-07-29T06:19:30.643Z,17.50
2022-07-29T06:24:33.536Z,17.77
2022-07-29T06:29:36.455Z,17.98
2022-07-29T06:34:39.280Z,18.23
2022-07-29T06:39:43.426Z,18.57
2022-07-29T06:44:46.142Z,18.73
2022-07-29T06:49:48.984Z,18.85
2022-07-29T06:54:51.752Z,19.00
2022-07-29T06:59:54.448Z,19.03
2022-07-29T07:04:57.400Z,19.02
2022-07-29T07:10:00.123Z,19.07
2022-07-29T07:15:02.976Z,19.13
2022-07-29T07:20:07.431Z,19.28
2022-07-29T07:25:12.941Z,19.44
2022-07-29T07:30:16.137Z,19.63
2022-07-29T07:35:18.920Z,19.75
2022-07-29T07:40:21.694Z,19.79
2022-07-29T07:45:25.235Z,19.89
2022-07-29T07:50:28.012Z,20.06
2022-07-29T07:55:53.223Z,20.17
2022-07-29T08:00:53.807Z,20.35
2022-07-29T08:05:56.877Z,20.47
2022-07-29T08:11:03.123Z,20.74
2022-07-29T08:16:16.426Z,20.94
2022-07-29T08:21:19.611Z,21.05
2022-07-29T08:26:23.688Z,21.05
2022-07-29T08:31:26.617Z,21.15
2022-07-29T08:36:29.518Z,21.35
2022-07-29T08:41:32.498Z,21.46
2022-07-29T08:46:39.390Z,21.63
2022-07-29T08:51:49.676Z,21.70
2022-07-29T08:56:54.794Z,21.68
2022-07-29T09:02:01.291Z,21.65
2022-07-29T09:07:06.976Z,21.74
2022-07-29T09:12:13.183Z,21.61
2022-07-29T09:17:50.277Z,21.10
2022-07-29T09:22:54.568Z,20.67
2022-07-29T09:28:07.083Z,20.56
2022-07-29T09:33:09.658Z,20.68
2022-07-29T09:38:12.951Z,20.72
2022-07-29T09:43:15.902Z,21.12
2022-07-29T09:48:21.535Z,21.67
2022-07-29T09:53:36.090Z,22.14
2022-07-29T09:58:39.665Z,22.50
2022-07-29T10:03:53.220Z,22.74
2022-07-29T10:08:56.166Z,22.96
2022-07-29T10:13:59.572Z,23.10
2022-07-29T10:19:02.730Z,23.14
2022-07-29T10:24:07.490Z,23.46
2022-07-29T10:29:17.901Z,23.85
2022-07-29T10:34:37.937Z,24.19
2022-07-29T10:39:49.695Z,24.34
2022-07-29T10:44:54.443Z,24.27
2022-07-29T10:50:03.805Z,24.39
2022-07-29T10:55:07.933Z,24.48
2022-07-29T11:05:54.619Z,24.59
2022-07-29T11:11:22.429Z,24.98
2022-07-29T11:17:06.073Z,25.13
2022-07-29T11:22:11.481Z,25.40
2022-07-29T11:27:18.241Z,25.76
2022-07-29T11:38:37.999Z,25.27
2022-07-29T11:43:52.970Z,24.65
2022-07-29T11:48:56.806Z,24.20
2022-07-29T11:54:05.172Z,24.04
2022-07-29T11:59:10.489Z,24.30
2022-07-29T12:04:18.143Z,24.54
2022-07-29T12:09:24.949Z,24.80
2022-07-29T12:14:29.710Z,25.05
2022-07-29T12:19:44.418Z,25.49
2022-07-29T12:24:47.502Z,25.83
2022-07-29T12:29:58.328Z,25.96
2022-07-29T12:35:05.576Z,26.16
2022-07-29T12:40:11.801Z,26.52
2022-07-29T12:45:17.582Z,27.05
2022-07-29T12:50:25.915Z,27.31
2022-07-29T12:55:43.662Z,27.56
2022-07-29T13:00:46.488Z,27.69
2022-07-29T13:05:51.523Z,27.57
2022-07-29T13:10:54.376Z,27.11
2022-07-29T13:16:08.830Z,26.61
2022-07-29T13:21:13.580Z,26.35
2022-07-29T13:26:20.657Z,26.42
2022-07-29T13:31:23.588Z,26.54
2022-07-29T13:36:26.305Z,26.52
2022-07-29T13:41:29.536Z,26.48
2022-07-29T13:46:32.274Z,26.65
2022-07-29T13:51:35.034Z,26.94
2022-07-29T13:56:37.791Z,27.50
2022-07-29T14:01:43.222Z,28.39
2022-07-29T14:06:46.011Z,28.83
2022-07-29T14:11:50.689Z,28.57
2022-07-29T14:16:53.440Z,28.06
2022-07-29T14:21:56.927Z,27.48
2022-07-29T14:27:01.111Z,27.49
2022-07-29T14:32:05.318Z,27.57
2022-07-29T14:37:08.185Z,28.16
2022-07-29T14:42:12.758Z,29.32
2022-07-29T14:47:15.796Z,30.59
2022-07-29T14:52:18.487Z,31.56
2022-07-29T14:57:21.185Z,31.73
2022-07-29T15:02:40.065Z,32.27
2022-07-29T15:07:46.583Z,31.91
2022-07-29T15:12:49.383Z,32.46
2022-07-29T15:17:52.099Z,33.04
2022-07-29T15:22:56.567Z,32.85
2022-07-29T15:28:03.294Z,31.83
2022-07-29T15:33:05.982Z,30.54
2022-07-29T15:38:09.010Z,29.56
2022-07-29T15:43:11.811Z,29.24
2022-07-29T15:48:15.024Z,29.18
2022-07-29T15:53:21.281Z,29.50
2022-07-29T15:58:24.138Z,30.50
2022-07-29T16:03:26.942Z,32.29
2022-07-29T16:08:29.781Z,33.29
2022-07-29T16:13:32.552Z,34.12
2022-07-29T16:18:35.267Z,34.41
2022-07-29T16:23:39.634Z,35.28
2022-07-29T16:28:42.867Z,36.06
2022-07-29T16:33:54.902Z,36.18
2022-07-29T16:38:58.677Z,33.86
2022-07-29T16:44:01.424Z,31.21
2022-07-29T16:49:04.595Z,31.35
2022-07-29T16:54:11.580Z,30.95
2022-07-29T16:59:14.361Z,30.27
2022-07-29T17:04:17.176Z,29.61
2022-07-29T17:09:21.149Z,30.75
2022-07-29T17:14:29.415Z,31.37
2022-07-29T17:19:35.326Z,30.50
2022-07-29T17:24:38.974Z,31.27
2022-07-29T17:29:44.138Z,31.90
2022-07-29T17:34:46.909Z,32.17
2022-07-29T17:39:50.945Z,32.47
2022-07-29T17:44:53.658Z,31.92
2022-07-29T17:49:56.354Z,29.62
2022-07-29T17:54:59.113Z,29.03
2022-07-29T18:00:01.941Z,27.84
2022-07-29T18:05:05.340Z,26.16
2022-07-29T18:10:08.472Z,24.76
2022-07-29T18:15:11.247Z,23.72
2022-07-29T18:20:14.063Z,22.88
2022-07-29T18:25:17.098Z,22.15
2022-07-29T18:30:20.391Z,21.51
2022-07-29T18:35:23.131Z,20.95
2022-07-29T18:40:25.977Z,20.46
2022-07-29T18:45:29.053Z,19.95
2022-07-29T18:50:32.441Z,19.52
2022-07-29T18:55:35.310Z,19.09
2022-07-29T19:00:38.133Z,18.67
2022-07-29T19:05:41.422Z,18.26
2022-07-29T19:10:44.222Z,17.88
2022-07-29T19:15:47.095Z,17.52
2022-07-29T19:20:49.921Z,17.19
2022-07-29T19:25:53.374Z,16.88
2022-07-29T19:30:57.121Z,16.60
2022-07-29T19:36:00.140Z,16.36
2022-07-29T19:41:02.850Z,16.14
2022-07-29T19:46:05.651Z,15.96
2022-07-29T19:51:08.371Z,15.83
2022-07-29T19:56:11.291Z,15.72
2022-07-29T20:01:14.110Z,15.63
2022-07-29T20:06:17.625Z,15.54
2022-07-29T20:11:20.368Z,15.43
2022-07-29T20:16:23.154Z,15.31
2022-07-29T20:21:28.700Z,15.18
2022-07-29T20:26:31.469Z,15.03
2022-07-29T20:31:34.338Z,14.87
2022-07-29T20:36:37.654Z,14.72
2022-07-29T20:41:40.783Z,14.61
2022-07-29T20:46:43.645Z,14.54
2022-07-29T20:51:46.438Z,14.46
2022-07-29T20:56:49.198Z,14.38
2022-07-29T21:01:51.982Z,14.29
2022-07-29T21:06:54.710Z,14.17
2022-07-29T21:11:59.478Z,14.04
2022-07-29T21:17:04.728Z,13.92
2022-07-29T21:22:07.592Z,13.82
2022-07-29T21:27:29.130Z,13.75
2022-07-29T21:32:31.926Z,13.69
2022-07-29T21:37:34.786Z,13.62
2022-07-29T21:42:37.503Z,13.51
2022-07-29T21:47:40.361Z,13.38
2022-07-29T21:52:43.107Z,13.25
2022-07-29T21:57:45.799Z,13.12
2022-07-29T22:02:48.663Z,13.05
2022-07-29T22:07:54.698Z,12.98
2022-07-29T22:13:01.843Z,12.90
2022-07-29T22:18:04.668Z,12.82
2022-07-29T22:23:07.391Z,12.72
2022-07-29T22:28:10.134Z,12.63
2022-07-29T22:33:17.349Z,12.57
2022-07-29T22:38:20.906Z,12.53
2022-07-29T22:43:23.647Z,12.47
2022-07-29T22:48:26.601Z,12.37
2022-07-29T22:53:29.355Z,12.26
2022-07-29T22:58:32.116Z,12.15
2022-07-29T23:03:34.974Z,12.07
2022-07-29T23:08:37.739Z,12.03
2022-07-29T23:13:40.485Z,11.97
2022-07-29T23:18:43.226Z,11.90
2022-07-29T23:23:45.946Z,11.82
2022-07-29T23:28:48.684Z,11.73
2022-07-29T23:33:51.434Z,11.68
2022-07-29T23:38:55.413Z,11.66
2022-07-29T23:43:58.978Z,11.65
2022-07-29T23:49:01.804Z,11.58
2022-07-29T23:54:04.744Z,11.51
2022-07-29T23:59:07.546Z,11.45
